Terminal Aerodrome Forecast
Issued by NWS

Home | Current Version | Previous Version | Graphics & Text | Print | Product List | Glossary On
Versions: 1 2 3 4 5 6 7 8 9 10 11 12 13 14 15 16 17
000
FTUS43 KMPX 030520
TAFAXN
TAF
KAXN 030520Z 0306/0406 12011KT 6SM BR OVC006
     FM030800 11004KT 4SM BR OVC006
     FM031600 13012G19KT P6SM SCT015=

USA.gov is the U.S. government's official web portal to all federal, state and local government web resources and services.